createdAt,value
2019-01-31T00:00:45.907Z,3.40
2019-01-31T00:03:31.464Z,3.60
2019-01-31T00:06:40.007Z,3.70
2019-01-31T00:09:37.980Z,3.83
2019-01-31T00:12:53.301Z,3.27
2019-01-31T00:15:38.107Z,3.67
2019-01-31T00:18:14.205Z,3.70
2019-01-31T00:21:12.237Z,3.90
2019-01-31T00:24:09.280Z,3.67
2019-01-31T00:27:15.327Z,3.33
2019-01-31T00:30:11.867Z,3.57
2019-01-31T00:33:18.145Z,3.30
2019-01-31T00:36:17.252Z,3.30
2019-01-31T00:39:21.251Z,3.20
2019-01-31T00:42:19.958Z,3.53
2019-01-31T00:45:03.163Z,3.23
2019-01-31T00:48:02.003Z,3.30
2019-01-31T00:50:46.220Z,3.10
2019-01-31T00:54:02.211Z,3.37
2019-01-31T00:57:11.865Z,3.60
2019-01-31T01:00:19.110Z,2.90
2019-01-31T01:03:31.760Z,3.07
2019-01-31T01:06:28.813Z,3.20
2019-01-31T01:09:22.361Z,3.00
2019-01-31T01:12:18.582Z,3.23
2019-01-31T01:15:24.313Z,4.10
2019-01-31T01:18:34.847Z,3.27
2019-01-31T01:21:12.799Z,3.17
2019-01-31T01:24:07.259Z,3.00
2019-01-31T01:27:31.200Z,2.83
2019-01-31T01:30:43.224Z,2.80
2019-01-31T01:33:54.028Z,3.10
2019-01-31T01:36:39.038Z,3.20
2019-01-31T01:39:49.443Z,3.10
2019-01-31T01:42:49.161Z,3.43
2019-01-31T01:45:54.112Z,2.87
2019-01-31T01:48:48.227Z,3.00
2019-01-31T01:51:45.848Z,3.10
2019-01-31T01:54:46.211Z,3.70
2019-01-31T01:57:59.142Z,3.03
2019-01-31T02:01:09.674Z,3.47
2019-01-31T02:04:11.975Z,3.07
2019-01-31T02:06:56.433Z,3.50
2019-01-31T02:09:53.571Z,3.30
2019-01-31T02:13:19.367Z,3.60
2019-01-31T02:16:31.409Z,3.23
2019-01-31T02:19:26.287Z,3.00
2019-01-31T02:22:31.454Z,3.23
2019-01-31T02:25:15.540Z,3.63
2019-01-31T02:28:37.935Z,3.17
2019-01-31T02:31:57.311Z,3.10
2019-01-31T02:35:07.096Z,3.20
2019-01-31T02:38:13.610Z,3.10
2019-01-31T02:41:04.221Z,2.97
2019-01-31T02:44:07.870Z,3.00
2019-01-31T02:47:01.524Z,3.27
2019-01-31T02:50:17.870Z,3.10
2019-01-31T02:53:37.134Z,3.30
2019-01-31T02:56:56.390Z,3.17
2019-01-31T02:59:41.310Z,3.17
2019-01-31T03:02:51.634Z,3.70
2019-01-31T03:05:38.096Z,3.50
2019-01-31T03:09:03.818Z,3.17
2019-01-31T03:11:49.383Z,2.90
2019-01-31T03:14:52.998Z,3.60
2019-01-31T03:17:46.866Z,4.27
2019-01-31T03:20:41.983Z,3.57
2019-01-31T03:24:20.132Z,3.33
2019-01-31T03:27:36.749Z,3.40
2019-01-31T03:30:41.896Z,4.10
2019-01-31T03:33:27.735Z,4.60
2019-01-31T03:36:40.197Z,4.43
2019-01-31T03:39:25.027Z,4.67
2019-01-31T03:42:26.175Z,4.60
2019-01-31T03:45:07.128Z,4.77
2019-01-31T03:48:24.663Z,4.47
2019-01-31T03:51:34.140Z,4.70
2019-01-31T03:54:18.342Z,5.00
2019-01-31T03:57:46.993Z,5.33
2019-01-31T04:00:37.442Z,4.93
2019-01-31T04:03:34.042Z,4.80
2019-01-31T04:06:11.223Z,5.00
2019-01-31T04:08:40.375Z,4.73
2019-01-31T04:11:09.542Z,4.40
2019-01-31T04:13:38.717Z,5.40
2019-01-31T04:16:08.129Z,5.20
2019-01-31T04:18:37.305Z,4.57
2019-01-31T04:21:06.468Z,5.57
2019-01-31T04:23:35.745Z,4.50
2019-01-31T04:26:08.307Z,5.40
2019-01-31T04:28:37.687Z,5.83
2019-01-31T04:31:06.950Z,5.40
2019-01-31T04:33:36.126Z,5.93
2019-01-31T04:36:05.303Z,9.07
2019-01-31T04:38:34.561Z,8.07
2019-01-31T04:41:03.798Z,7.17
2019-01-31T04:43:33.077Z,7.43
2019-01-31T04:46:02.247Z,6.57
2019-01-31T04:48:31.615Z,6.33
2019-01-31T04:51:00.824Z,5.80
2019-01-31T04:53:30.028Z,6.03
2019-01-31T04:55:59.254Z,5.37
2019-01-31T04:58:28.435Z,5.67
2019-01-31T05:00:57.835Z,5.73
2019-01-31T05:03:26.989Z,6.17
2019-01-31T05:05:56.164Z,6.83
2019-01-31T05:08:25.417Z,5.97
2019-01-31T05:10:54.574Z,7.20
2019-01-31T05:13:23.854Z,8.27
2019-01-31T05:15:53.027Z,8.40
2019-01-31T05:18:22.258Z,8.20
2019-01-31T05:20:51.424Z,7.17
2019-01-31T05:23:20.722Z,6.90
2019-01-31T05:25:49.870Z,6.20
2019-01-31T05:28:19.123Z,6.40
2019-01-31T05:30:48.404Z,6.27
2019-01-31T05:33:17.671Z,6.67
2019-01-31T05:35:46.939Z,6.60
2019-01-31T05:38:17.555Z,6.10
2019-01-31T05:40:55.336Z,6.00
2019-01-31T05:43:17.838Z,7.10
2019-01-31T05:45:47.022Z,7.00
2019-01-31T05:48:16.212Z,9.07
2019-01-31T05:50:45.452Z,9.30
2019-01-31T05:53:14.811Z,9.73
2019-01-31T05:55:44.090Z,9.57
2019-01-31T05:58:13.231Z,9.23
2019-01-31T06:00:42.805Z,8.93
2019-01-31T06:03:12.138Z,9.30
2019-01-31T06:05:41.500Z,7.47
2019-01-31T06:08:10.862Z,8.07
2019-01-31T06:10:40.004Z,8.17
2019-01-31T06:13:09.186Z,7.23
2019-01-31T06:15:38.420Z,8.00
2019-01-31T06:18:07.673Z,6.87
2019-01-31T06:20:36.816Z,7.23
2019-01-31T06:23:06.108Z,7.90
2019-01-31T06:25:35.347Z,10.40
2019-01-31T06:28:05.108Z,11.37
2019-01-31T06:30:34.466Z,12.20
2019-01-31T06:33:03.724Z,13.07
2019-01-31T06:35:32.958Z,12.37
2019-01-31T06:38:02.354Z,10.60
2019-01-31T06:40:31.552Z,11.03
2019-01-31T06:43:00.895Z,11.30
2019-01-31T06:45:30.248Z,10.50
2019-01-31T06:47:59.425Z,8.97
2019-01-31T06:50:28.649Z,9.30
2019-01-31T06:52:58.227Z,8.73
2019-01-31T06:55:27.662Z,9.00
2019-01-31T06:57:56.864Z,9.23
2019-01-31T07:00:26.018Z,7.93
2019-01-31T07:02:55.440Z,8.63
2019-01-31T07:05:24.694Z,7.90
2019-01-31T07:07:53.921Z,8.23
2019-01-31T07:10:25.287Z,8.03
2019-01-31T07:12:54.540Z,10.00
2019-01-31T07:15:23.835Z,11.50
2019-01-31T07:17:53.259Z,10.83
2019-01-31T07:20:22.593Z,11.23
2019-01-31T07:22:52.091Z,11.33
2019-01-31T07:25:23.653Z,9.57
2019-01-31T07:27:53.064Z,9.57
2019-01-31T07:30:22.682Z,9.10
2019-01-31T07:32:58.667Z,10.73
2019-01-31T07:35:27.844Z,10.80
2019-01-31T07:37:57.078Z,13.50
2019-01-31T07:40:26.471Z,11.10
2019-01-31T07:42:55.676Z,11.67
2019-01-31T07:45:27.571Z,11.73
2019-01-31T07:47:58.963Z,11.73
2019-01-31T07:50:28.428Z,11.70
2019-01-31T07:52:57.800Z,10.83
2019-01-31T07:55:27.153Z,11.27
2019-01-31T07:57:56.532Z,9.07
2019-01-31T08:00:26.067Z,7.53
2019-01-31T08:02:55.578Z,7.23
2019-01-31T08:05:24.853Z,7.77
2019-01-31T08:07:54.979Z,8.20
2019-01-31T08:10:29.733Z,7.80
2019-01-31T08:12:59.455Z,9.10
2019-01-31T08:15:28.878Z,9.30
2019-01-31T08:17:58.276Z,9.33
2019-01-31T08:20:29.315Z,9.10
2019-01-31T08:23:00.202Z,8.13
2019-01-31T08:25:29.903Z,7.73
2019-01-31T08:27:59.242Z,7.80
2019-01-31T08:30:30.787Z,6.53
2019-01-31T08:33:00.016Z,6.43
2019-01-31T08:35:29.297Z,6.97
2019-01-31T08:37:58.548Z,7.77
2019-01-31T08:40:28.078Z,7.80
2019-01-31T08:42:57.263Z,7.57
2019-01-31T08:45:26.563Z,7.70
2019-01-31T08:47:57.113Z,7.30
2019-01-31T08:50:27.671Z,6.57
2019-01-31T08:52:57.113Z,6.20
2019-01-31T08:55:26.437Z,6.00
2019-01-31T08:57:55.722Z,6.43
2019-01-31T09:00:27.059Z,6.63
2019-01-31T09:02:56.458Z,7.37
2019-01-31T09:05:25.700Z,8.13
2019-01-31T09:07:54.906Z,7.40
2019-01-31T09:10:32.438Z,7.90
2019-01-31T09:13:03.704Z,7.27
2019-01-31T09:15:33.082Z,7.13
2019-01-31T09:18:02.370Z,7.67
2019-01-31T09:20:44.674Z,7.87
2019-01-31T09:24:19.393Z,10.40
2019-01-31T09:27:19.476Z,7.10
2019-01-31T09:30:11.411Z,7.17
2019-01-31T09:33:24.991Z,6.80
2019-01-31T09:36:21.342Z,7.57
2019-01-31T09:39:33.169Z,7.63
2019-01-31T09:42:26.336Z,7.43
2019-01-31T09:45:47.562Z,6.63
2019-01-31T09:48:32.676Z,7.47
2019-01-31T09:51:20.234Z,7.10
2019-01-31T09:54:13.108Z,7.17
2019-01-31T09:57:28.539Z,7.27
2019-01-31T10:00:51.086Z,6.93
2019-01-31T10:03:50.960Z,6.37
2019-01-31T10:07:06.057Z,6.07
2019-01-31T10:10:18.674Z,6.63
2019-01-31T10:13:31.520Z,6.67
2019-01-31T10:16:37.121Z,6.30
2019-01-31T10:19:37.154Z,6.90
2019-01-31T10:22:53.463Z,4.40
2019-01-31T10:25:59.014Z,3.73
2019-01-31T10:29:18.465Z,3.90
2019-01-31T10:32:10.367Z,3.43
2019-01-31T10:34:46.546Z,3.90
2019-01-31T10:37:42.083Z,3.57
2019-01-31T10:41:04.384Z,3.80
2019-01-31T10:44:33.737Z,3.00
2019-01-31T10:47:40.967Z,3.77
2019-01-31T10:50:53.264Z,2.97
2019-01-31T10:53:35.418Z,3.40
2019-01-31T10:56:37.314Z,3.07
2019-01-31T10:59:21.256Z,3.10
2019-01-31T11:02:31.230Z,3.53
2019-01-31T11:05:32.483Z,3.23
2019-01-31T11:08:39.829Z,3.40
2019-01-31T11:11:15.003Z,3.23
2019-01-31T11:14:13.495Z,2.70
2019-01-31T11:17:14.291Z,2.70
2019-01-31T11:20:36.127Z,3.00
2019-01-31T11:23:14.963Z,2.67
2019-01-31T11:26:19.519Z,3.30
2019-01-31T11:29:26.883Z,3.00
2019-01-31T11:32:34.639Z,3.40
2019-01-31T11:35:25.545Z,3.17
2019-01-31T11:38:10.419Z,3.10
2019-01-31T11:41:19.223Z,3.43
2019-01-31T11:44:09.873Z,2.80
2019-01-31T11:46:53.767Z,3.20
2019-01-31T11:50:09.828Z,3.60
2019-01-31T11:53:05.035Z,2.80
2019-01-31T11:56:13.971Z,3.00
2019-01-31T11:59:07.379Z,2.90
2019-01-31T12:01:37.530Z,3.20
2019-01-31T12:04:12.842Z,3.30
2019-01-31T12:06:42.159Z,3.27
2019-01-31T12:09:14.682Z,3.20
2019-01-31T12:11:43.939Z,3.00
2019-01-31T12:14:13.307Z,3.27
2019-01-31T12:16:42.495Z,3.07
2019-01-31T12:19:11.733Z,3.40
2019-01-31T12:21:41.051Z,2.60
2019-01-31T12:24:16.042Z,2.97
2019-01-31T12:26:41.267Z,3.23
2019-01-31T12:29:10.519Z,3.70
2019-01-31T12:31:39.891Z,3.10
2019-01-31T12:34:09.075Z,2.53
2019-01-31T12:36:38.261Z,2.83
2019-01-31T12:39:10.412Z,2.97
2019-01-31T12:41:39.690Z,3.70
2019-01-31T12:44:09.407Z,2.93
2019-01-31T12:46:38.558Z,3.20
2019-01-31T12:49:07.853Z,3.13
2019-01-31T12:51:37.128Z,3.23
2019-01-31T12:54:06.562Z,3.10
2019-01-31T12:56:35.841Z,3.87
2019-01-31T12:59:05.537Z,3.27
2019-01-31T13:01:34.783Z,3.73
2019-01-31T13:04:04.446Z,4.37
2019-01-31T13:06:33.739Z,4.27
2019-01-31T13:09:04.658Z,3.93
2019-01-31T13:11:34.031Z,3.90
2019-01-31T13:14:03.633Z,3.70
2019-01-31T13:16:32.983Z,3.80
2019-01-31T13:19:02.216Z,4.07
2019-01-31T13:21:31.461Z,3.80
2019-01-31T13:24:00.748Z,3.97
2019-01-31T13:26:29.974Z,4.13
2019-01-31T13:28:59.170Z,4.63
2019-01-31T13:31:28.366Z,4.67
2019-01-31T13:33:57.514Z,4.80
2019-01-31T13:36:26.789Z,4.83
2019-01-31T13:38:55.987Z,4.40
2019-01-31T13:41:44.408Z,4.47
2019-01-31T13:44:13.566Z,4.57
2019-01-31T13:46:42.887Z,4.57
2019-01-31T13:49:12.048Z,4.13
2019-01-31T13:52:00.527Z,4.37
2019-01-31T13:54:29.713Z,4.97
2019-01-31T13:56:58.939Z,4.40
2019-01-31T13:59:28.189Z,4.53
2019-01-31T14:01:57.406Z,4.30
2019-01-31T14:04:26.559Z,4.27
2019-01-31T14:06:55.887Z,5.07
2019-01-31T14:09:25.139Z,5.13
2019-01-31T14:11:54.518Z,5.07
2019-01-31T14:14:23.897Z,4.93
2019-01-31T14:16:53.215Z,5.83
2019-01-31T14:19:22.439Z,5.10
2019-01-31T14:21:51.767Z,4.50
2019-01-31T14:24:21.090Z,5.00
2019-01-31T14:26:50.362Z,4.87
2019-01-31T14:29:19.621Z,5.20
2019-01-31T14:31:48.996Z,5.80
2019-01-31T14:34:18.251Z,5.90
2019-01-31T14:36:47.729Z,5.40
2019-01-31T14:39:17.092Z,5.60
2019-01-31T14:41:46.363Z,5.33
2019-01-31T14:44:20.620Z,4.83
2019-01-31T14:46:46.420Z,5.07
2019-01-31T14:49:15.599Z,5.77
2019-01-31T14:51:44.831Z,5.57
2019-01-31T14:54:14.150Z,5.67
2019-01-31T14:56:43.472Z,5.60
2019-01-31T14:59:12.710Z,5.40
2019-01-31T15:01:42.007Z,5.90
2019-01-31T15:04:11.341Z,5.77
2019-01-31T15:06:40.618Z,5.70
2019-01-31T15:09:10.302Z,5.70
2019-01-31T15:11:39.641Z,6.00
2019-01-31T15:14:08.968Z,6.47
2019-01-31T15:16:38.195Z,6.80
2019-01-31T15:19:07.522Z,5.93
2019-01-31T15:21:36.932Z,6.07
2019-01-31T15:24:06.183Z,6.30
2019-01-31T15:26:35.570Z,5.90
2019-01-31T15:29:04.852Z,7.07
2019-01-31T15:31:34.154Z,5.93
2019-01-31T15:34:03.529Z,5.83
2019-01-31T15:36:32.803Z,6.63
2019-01-31T15:39:02.006Z,7.10
2019-01-31T15:41:31.365Z,7.00
2019-01-31T15:44:00.629Z,8.60
2019-01-31T15:46:29.883Z,7.73
2019-01-31T15:48:59.102Z,6.90
2019-01-31T15:51:28.359Z,6.53
2019-01-31T15:53:57.726Z,7.97
2019-01-31T15:56:26.939Z,7.27
2019-01-31T15:58:56.210Z,7.53
2019-01-31T16:01:25.485Z,9.53
2019-01-31T16:03:54.761Z,10.23
2019-01-31T16:06:24.083Z,12.83
2019-01-31T16:08:53.298Z,11.30
2019-01-31T16:11:22.567Z,10.03
2019-01-31T16:13:51.877Z,9.57
2019-01-31T16:16:21.079Z,8.20
2019-01-31T16:18:50.305Z,27.97
2019-01-31T16:21:19.449Z,23.77
2019-01-31T16:23:48.801Z,13.47
2019-01-31T16:26:18.034Z,32.63
2019-01-31T16:28:47.326Z,8.53
2019-01-31T16:31:16.606Z,34.87
2019-01-31T16:33:45.809Z,37.37
2019-01-31T16:36:15.229Z,8.80
2019-01-31T16:38:44.530Z,7.87
2019-01-31T16:41:13.920Z,8.30
2019-01-31T16:43:43.261Z,8.63
2019-01-31T16:46:12.487Z,8.83
2019-01-31T16:48:41.761Z,8.63
2019-01-31T16:51:11.084Z,8.70
2019-01-31T16:53:40.373Z,10.08
2019-01-31T16:56:11.458Z,9.10
2019-01-31T16:58:40.678Z,9.10
2019-01-31T17:01:10.296Z,11.73
2019-01-31T17:03:39.577Z,8.73
2019-01-31T17:06:09.503Z,9.50
2019-01-31T17:08:38.728Z,9.27
2019-01-31T17:11:08.038Z,9.17
2019-01-31T17:13:37.346Z,8.87
2019-01-31T17:16:06.681Z,10.23
2019-01-31T17:18:36.013Z,9.90
2019-01-31T17:21:05.351Z,11.10
2019-01-31T17:23:34.664Z,10.57
2019-01-31T17:26:04.133Z,13.83
2019-01-31T17:28:52.491Z,14.93
2019-01-31T17:31:21.773Z,9.17
2019-01-31T17:33:51.030Z,9.20
2019-01-31T17:36:20.293Z,9.37
2019-01-31T17:38:49.663Z,12.50
2019-01-31T17:41:19.075Z,10.20
2019-01-31T17:43:48.374Z,10.00
2019-01-31T17:46:17.782Z,9.33
2019-01-31T17:48:47.409Z,9.80
2019-01-31T17:51:18.129Z,9.57
2019-01-31T17:53:47.480Z,9.23
2019-01-31T17:56:16.854Z,10.00
2019-01-31T17:58:46.079Z,11.07
2019-01-31T18:01:15.390Z,10.83
2019-01-31T18:03:44.754Z,10.87
2019-01-31T18:06:13.938Z,10.10
2019-01-31T18:08:43.179Z,10.23
2019-01-31T18:11:12.483Z,9.47
2019-01-31T18:13:41.753Z,10.53
2019-01-31T18:16:11.106Z,11.10
2019-01-31T18:18:40.336Z,10.80
2019-01-31T18:21:09.644Z,11.53
2019-01-31T18:23:38.922Z,10.50
2019-01-31T18:26:08.242Z,11.47
2019-01-31T18:28:37.627Z,11.50
2019-01-31T18:31:06.923Z,11.83
2019-01-31T18:33:36.254Z,11.17
2019-01-31T18:36:05.602Z,12.27
2019-01-31T18:38:34.844Z,12.07
2019-01-31T18:41:04.173Z,10.97
2019-01-31T18:43:33.485Z,10.53
2019-01-31T18:46:02.653Z,11.10
2019-01-31T18:48:31.958Z,13.53
2019-01-31T18:51:01.706Z,22.87
2019-01-31T18:53:31.033Z,35.43
2019-01-31T18:56:00.316Z,32.53
2019-01-31T18:58:29.581Z,20.15
2019-01-31T19:00:58.902Z,14.53
2019-01-31T19:03:28.260Z,30.50
2019-01-31T19:05:57.552Z,15.57
2019-01-31T19:08:26.867Z,13.73
2019-01-31T19:10:56.221Z,12.73
2019-01-31T19:13:25.576Z,12.10
2019-01-31T19:16:04.664Z,13.33
2019-01-31T19:18:25.920Z,12.07
2019-01-31T19:20:55.257Z,13.17
2019-01-31T19:23:24.508Z,17.57
2019-01-31T19:25:53.875Z,12.50
2019-01-31T19:28:23.303Z,13.13
2019-01-31T19:30:52.648Z,11.80
2019-01-31T19:33:21.967Z,61.03
2019-01-31T19:35:51.285Z,12.63
2019-01-31T19:38:20.545Z,13.40
2019-01-31T19:40:49.905Z,13.93
2019-01-31T19:43:19.220Z,21.90
2019-01-31T19:45:51.998Z,12.50
2019-01-31T19:48:21.299Z,12.30
2019-01-31T19:50:50.662Z,12.47
2019-01-31T19:53:20.013Z,13.23
2019-01-31T19:55:49.412Z,12.83
2019-01-31T19:58:18.779Z,13.00
2019-01-31T20:00:48.225Z,13.73
2019-01-31T20:03:17.536Z,16.50
2019-01-31T20:05:46.946Z,18.57
2019-01-31T20:08:16.347Z,14.07
2019-01-31T20:10:45.729Z,14.93
2019-01-31T20:13:15.153Z,14.73
2019-01-31T20:15:44.569Z,13.57
2019-01-31T20:18:14.064Z,15.07
2019-01-31T20:20:43.339Z,15.00
2019-01-31T20:23:12.763Z,13.93
2019-01-31T20:25:42.201Z,16.47
2019-01-31T20:28:11.583Z,17.47
2019-01-31T20:30:40.953Z,24.30
2019-01-31T20:33:10.219Z,22.13
2019-01-31T20:35:39.613Z,28.30
2019-01-31T20:38:08.824Z,19.80
2019-01-31T20:40:40.287Z,18.83
2019-01-31T20:43:09.809Z,17.73
2019-01-31T20:45:39.291Z,16.73
2019-01-31T20:48:09.181Z,17.43
2019-01-31T20:50:40.647Z,17.57
2019-01-31T20:53:10.005Z,17.60
2019-01-31T20:55:39.366Z,18.53
2019-01-31T20:58:08.829Z,16.43
2019-01-31T21:00:43.729Z,18.77
2019-01-31T21:03:13.272Z,19.13
2019-01-31T21:05:43.313Z,19.33
2019-01-31T21:08:13.918Z,17.87
2019-01-31T21:10:43.312Z,18.53
2019-01-31T21:13:12.925Z,18.60
2019-01-31T21:15:42.358Z,20.70
2019-01-31T21:18:11.866Z,20.30
2019-01-31T21:20:41.317Z,21.53
2019-01-31T21:23:11.147Z,23.20
2019-01-31T21:25:40.480Z,22.63
2019-01-31T21:28:09.841Z,22.60
2019-01-31T21:30:40.932Z,23.67
2019-01-31T21:33:10.196Z,28.00
2019-01-31T21:35:39.511Z,27.33
2019-01-31T21:38:08.846Z,26.53
2019-01-31T21:40:38.986Z,28.17
2019-01-31T21:43:08.328Z,27.97
2019-01-31T21:45:37.892Z,26.37
2019-01-31T21:48:08.966Z,25.47
2019-01-31T21:50:38.267Z,29.00
2019-01-31T21:53:07.853Z,25.47
2019-01-31T21:55:50.572Z,26.03
2019-01-31T21:58:19.774Z,26.60
2019-01-31T22:00:49.158Z,25.97
2019-01-31T22:03:18.478Z,25.63
2019-01-31T22:05:47.846Z,26.07
2019-01-31T22:08:17.203Z,26.80
2019-01-31T22:10:46.547Z,24.83
2019-01-31T22:13:15.939Z,24.67
2019-01-31T22:15:45.421Z,25.20
2019-01-31T22:18:17.753Z,24.13
2019-01-31T22:20:45.865Z,27.50
2019-01-31T22:23:15.156Z,26.83
2019-01-31T22:25:44.436Z,25.53
2019-01-31T22:28:13.705Z,23.83
2019-01-31T22:30:42.986Z,23.10
2019-01-31T22:33:12.271Z,22.80
2019-01-31T22:35:41.555Z,26.30
2019-01-31T22:38:10.822Z,23.13
2019-01-31T22:40:40.029Z,25.13
2019-01-31T22:43:09.315Z,23.33
2019-01-31T22:45:38.844Z,22.10
2019-01-31T22:48:08.404Z,21.07
2019-01-31T22:50:37.834Z,22.20
2019-01-31T22:53:07.378Z,22.13
2019-01-31T22:55:36.740Z,20.43
2019-01-31T22:58:06.943Z,20.20
2019-01-31T23:00:54.364Z,18.63
2019-01-31T23:03:23.660Z,18.63
2019-01-31T23:05:52.924Z,17.70
2019-01-31T23:08:22.270Z,19.57
2019-01-31T23:10:51.623Z,17.23
2019-01-31T23:13:20.971Z,16.30
2019-01-31T23:15:50.474Z,17.80
2019-01-31T23:18:19.967Z,16.83
2019-01-31T23:20:49.285Z,16.07
2019-01-31T23:23:18.900Z,15.83
2019-01-31T23:25:48.375Z,17.30
2019-01-31T23:28:17.678Z,15.70
2019-01-31T23:30:47.187Z,14.10
2019-01-31T23:33:16.615Z,14.33
2019-01-31T23:35:46.218Z,14.57
2019-01-31T23:38:15.602Z,14.40
2019-01-31T23:40:44.835Z,15.17
2019-01-31T23:43:14.233Z,13.03
2019-01-31T23:45:43.711Z,13.73
2019-01-31T23:48:13.082Z,13.33
2019-01-31T23:50:42.549Z,13.90
2019-01-31T23:53:11.831Z,14.53
2019-01-31T23:55:41.208Z,13.20
2019-01-31T23:58:10.645Z,14.13
